This is the latest recevied weather packets stored in our database for station/object K4ROM-1. If no packets are shown the sender has not sent any weather packets the latest 10 day(s).
| Time | Temp. | Humidity | Pressure | Rain* | Wind** | Luminosity | Snow |
|---|---|---|---|---|---|---|---|
| 1777590003 | 22.22° C | 45% | 1010.4 hPa | 0 mm | 0.45 m/s, 247° | - | - |
| 1777589403 | 22.22° C | 46% | 1010.5 hPa | 0 mm | 0 m/s | - | - |
| 1777588803 | 22.78° C | 46% | 1010.3 hPa | 0 mm | 0.45 m/s, 332° | - | - |
| 1777588203 | 23.33° C | 44% | 1010 hPa | 0 mm | 0.89 m/s, 334° | - | - |
| 1777587603 | 23.33° C | 44% | 1009.9 hPa | 0 mm | 0.89 m/s, 6° | - | - |
| 1777587003 | 23.33° C | 45% | 1009.9 hPa | 0 mm | 0.45 m/s, 334° | - | - |
| 1777586403 | 23.89° C | 44% | 1010 hPa | 0 mm | 0.89 m/s, 247° | - | - |
| 1777585803 | 22.78° C | 52% | 1010.1 hPa | 0 mm | 0 m/s | - | - |
| 1777585203 | 22.78° C | 50% | 1010 hPa | 0 mm | 0 m/s | - | - |
| 1777584603 | 22.78° C | 50% | 1010.1 hPa | 0 mm | 0.45 m/s, 339° | - | - |
| 1777584003 | 23.33° C | 49% | 1009.8 hPa | 0 mm | 0 m/s | - | - |
| 1777583403 | 23.89° C | 47% | 1009.9 hPa | 0 mm | 0.45 m/s, 29° | - | - |
| 1777582803 | 23.89° C | 49% | 1009.8 hPa | 0 mm | 0.45 m/s, 350° | - | - |
| 1777582203 | 23.33° C | 50% | 1009.7 hPa | 0 mm | 0.45 m/s, 303° | - | - |
| 1777581603 | 23.33° C | 48% | 1009.9 hPa | 0 mm | 0 m/s | - | - |
| 1777581003 | 23.33° C | 49% | 1009.9 hPa | 0 mm | 0.89 m/s, 253° | - | - |
| 1777580403 | 23.33° C | 48% | 1009.7 hPa | 0 mm | 0.89 m/s, 248° | - | - |
| 1777579803 | 23.89° C | 49% | 1010.3 hPa | 0 mm | 0.45 m/s, 262° | - | - |
| 1777579203 | 23.33° C | 50% | 1010.1 hPa | 0 mm | 0 m/s | - | - |
| 1777578603 | 22.78° C | 53% | 1010.4 hPa | 0 mm | 0.45 m/s, 284° | - | - |
| 1777578003 | 23.33° C | 51% | 1010.5 hPa | 0 mm | 0.89 m/s, 47° | - | - |
| 1777577403 | 23.89° C | 51% | 1010.6 hPa | 0 mm | 0 m/s | - | - |
| 1777576803 | 23.33° C | 55% | 1010.6 hPa | 0 mm | 0.45 m/s, 357° | - | - |
| 1777576203 | 22.78° C | 53% | 1010.9 hPa | 0 mm | 0.89 m/s, 345° | - | - |
| 1777575603 | 22.78° C | 53% | 1010.7 hPa | 0 mm | 0.89 m/s, 342° | - | - |
* Rain latest hour (hover to see other rain measurements)
** Current wind speed in m/s (hover to see current wind gust speed)